Time;durP1;ratioP1;P1;durP2;ratioP2;P2;SDS_P1;SDS_P2;PMS_P1;PMS_P2;Temp;Humidity;BMP_temperature;BMP_pressure;BME280_temperature;BME280_humidity;BME280_pressure;Samples;Min_cycle;Max_cycle;Signal;HPM_P1;HPM_P2
2023/01/09 00:01:40;;;;;;;0.10;0.10;;;6.30;99.90;12.80;163505.00;;;;4987200;28;20252;-77
2023/01/09 00:04:09;;;;;;;0.10;0.10;;;6.30;99.90;12.80;163505.00;;;;4973722;28;20201;-76
2023/01/09 00:06:38;;;;;;;0.03;0.03;;;6.30;99.90;12.80;163505.00;;;;4983285;28;20193;-77
2023/01/09 00:09:07;;;;;;;0.00;0.00;;;6.30;99.90;12.80;163505.00;;;;4987577;28;20229;-77
2023/01/09 00:11:37;;;;;;;0.10;0.10;;;6.30;99.90;12.80;163505.00;;;;4985206;28;20679;-77
2023/01/09 00:14:05;;;;;;;0.10;0.10;;;6.30;99.90;12.80;163505.00;;;;4981526;28;20201;-76
2023/01/09 00:16:33;;;;;;;0.10;0.10;;;6.30;99.90;12.80;163505.00;;;;4990629;28;20197;-78
2023/01/09 00:19:01;;;;;;;0.10;0.10;;;6.30;99.90;12.80;163505.00;;;;4994126;28;20217;-77
2023/01/09 00:21:29;;;;;;;0.10;0.10;;;6.40;99.90;12.80;163505.00;;;;4975353;28;20291;-77
2023/01/09 00:23:57;;;;;;;0.10;0.10;;;6.30;99.90;12.80;163505.00;;;;4975493;28;20224;-75
2023/01/09 00:26:24;;;;;;;0.10;0.10;;;6.40;99.90;12.80;163505.00;;;;4978724;28;20682;-76
2023/01/09 00:28:54;;;;;;;0.00;0.00;;;6.40;99.90;12.80;163505.00;;;;4956064;28;20256;-75
2023/01/09 00:31:22;;;;;;;0.10;0.10;;;6.40;99.90;12.80;163505.00;;;;4944701;28;20193;-75
2023/01/09 00:33:56;;;;;;;0.10;0.10;;;6.40;99.90;12.80;163505.00;;;;4973870;28;20185;-76
2023/01/09 00:36:24;;;;;;;0.10;0.10;;;6.40;99.90;12.80;163505.00;;;;4989187;28;20207;-76
2023/01/09 00:38:52;;;;;;;0.10;0.10;;;6.40;99.90;12.80;163505.00;;;;4985392;28;20236;-76
2023/01/09 00:41:30;;;;;;;0.10;0.10;;;6.40;99.90;12.80;163505.00;;;;4978237;28;20200;-77
2023/01/09 00:44:07;;;;;;;0.10;0.10;;;6.50;99.90;12.80;163505.00;;;;4958920;28;20198;-76
2023/01/09 00:46:41;;;;;;;0.10;0.10;;;6.50;99.90;12.80;163505.00;;;;4983640;28;20251;-75
2023/01/09 00:49:10;;;;;;;0.10;0.10;;;6.50;99.90;12.80;163505.00;;;;4975502;28;20231;-76
2023/01/09 00:51:41;;;;;;;0.10;0.10;;;6.50;99.90;12.80;163505.00;;;;4984756;28;20689;-76
2023/01/09 00:54:11;;;;;;;0.10;0.10;;;6.50;99.90;12.80;163505.00;;;;4976911;28;20256;-78
2023/01/09 00:56:40;;;;;;;0.10;0.10;;;6.50;99.90;12.80;163505.00;;;;4984126;28;20216;-78
2023/01/09 00:59:09;;;;;;;0.10;0.10;;;6.50;99.90;12.80;163505.00;;;;4993081;28;20220;-78
2023/01/09 01:01:37;;;;;;;0.10;0.10;;;6.50;99.90;12.80;163505.00;;;;4973313;28;20265;-78
2023/01/09 01:09:29;;;;;;;0.10;0.10;;;6.40;99.90;12.80;163505.00;;;;4948583;28;20252;-77
2023/01/09 01:11:58;;;;;;;0.10;0.10;;;6.40;99.90;12.80;163505.00;;;;4979004;28;20199;-78
2023/01/09 01:14:28;;;;;;;0.10;0.10;;;6.40;99.90;12.80;163505.00;;;;4962461;28;20193;-79
2023/01/09 01:16:56;;;;;;;0.10;0.10;;;6.30;99.90;12.80;163505.00;;;;4979537;28;20673;-77
2023/01/09 01:19:24;;;;;;;0.10;0.10;;;6.30;99.90;12.80;163505.00;;;;4987453;28;20217;-78
2023/01/09 01:21:52;;;;;;;0.10;0.10;;;6.30;99.90;12.80;163505.00;;;;4977113;28;20189;-77
2023/01/09 01:24:20;;;;;;;0.10;0.10;;;6.30;99.90;12.80;163505.00;;;;4979924;28;20232;-76
2023/01/09 01:26:48;;;;;;;0.10;0.10;;;6.30;99.90;12.80;163505.00;;;;4981057;28;20192;-76
2023/01/09 01:29:16;;;;;;;0.08;0.08;;;6.20;99.90;12.80;163505.00;;;;4992452;28;20224;-76
2023/01/09 01:31:45;;;;;;;0.10;0.10;;;6.20;99.90;12.80;163505.00;;;;4975214;28;20196;-76
2023/01/09 01:34:13;;;;;;;0.10;0.10;;;6.20;99.90;12.80;163505.00;;;;4973718;28;20201;-75
2023/01/09 01:36:41;;;;;;;0.10;0.10;;;6.10;99.90;12.80;163505.00;;;;4974093;28;20220;-76
2023/01/09 01:39:09;;;;;;;0.10;0.10;;;6.10;99.90;12.80;163505.00;;;;4988583;28;20229;-77
2023/01/09 01:41:38;;;;;;;0.10;0.10;;;6.00;99.90;12.80;163505.00;;;;4989036;28;20563;-77
2023/01/09 01:44:45;;;;;;;0.10;0.10;;;6.00;99.90;12.80;163505.00;;;;4983330;28;20296;-76
2023/01/09 01:47:19;;;;;;;0.10;0.10;;;6.00;99.90;12.80;163505.00;;;;4963894;28;20256;-78
2023/01/09 01:49:47;;;;;;;0.10;0.10;;;5.90;99.90;12.80;163505.00;;;;4979447;28;20232;-77
2023/01/09 01:52:18;;;;;;;0.10;0.10;;;5.90;99.90;12.80;163505.00;;;;4979096;28;20193;-75
2023/01/09 01:54:47;;;;;;;0.10;0.10;;;5.90;99.90;12.80;163505.00;;;;4976343;28;20196;-77
2023/01/09 01:57:15;;;;;;;0.10;0.10;;;5.90;99.90;12.80;163505.00;;;;4985030;28;20197;-80
2023/01/09 01:59:50;;;;;;;0.10;0.10;;;5.90;99.90;12.80;163505.00;;;;4974205;28;20777;-75
2023/01/09 02:02:23;;;;;;;0.10;0.10;;;5.80;99.90;12.80;163505.00;;;;4958358;28;20196;-76
2023/01/09 02:04:55;;;;;;;0.10;0.10;;;5.80;99.90;12.80;163505.00;;;;4968960;28;20716;-76
2023/01/09 02:07:24;;;;;;;0.10;0.10;;;5.80;99.90;12.80;163505.00;;;;4990279;28;20208;-76
2023/01/09 02:09:54;;;;;;;0.10;0.10;;;5.80;99.90;12.80;163505.00;;;;4987062;28;20356;-76
2023/01/09 02:12:25;;;;;;;0.10;0.10;;;5.80;99.90;12.80;163505.00;;;;4976365;28;20197;-77
2023/01/09 02:14:58;;;;;;;0.10;0.10;;;5.80;99.90;12.80;163505.00;;;;4973494;28;20670;-76
2023/01/09 02:18:02;;;;;;;0.10;0.10;;;5.80;99.90;12.80;163505.00;;;;4972113;28;20196;-76
2023/01/09 02:20:52;;;;;;;0.10;0.10;;;5.80;99.90;12.80;163505.00;;;;4972618;28;20275;-76
2023/01/09 02:24:11;;;;;;;0.10;0.10;;;5.80;99.90;12.80;163505.00;;;;4977627;28;20612;-77
2023/01/09 02:27:06;;;;;;;0.10;0.10;;;5.80;99.90;12.80;163505.00;;;;4982136;28;20196;-77
2023/01/09 02:30:26;;;;;;;0.10;0.10;;;5.80;99.90;12.80;163505.00;;;;4986845;28;20274;-76
2023/01/09 02:33:16;;;;;;;0.10;0.10;;;5.80;99.90;12.80;163505.00;;;;4981009;28;20220;-74
2023/01/09 02:36:10;;;;;;;0.10;0.10;;;5.80;99.90;12.80;163505.00;;;;4975757;28;20193;-75
2023/01/09 02:38:53;;;;;;;0.10;0.10;;;5.80;99.90;12.80;163505.00;;;;4976064;28;20221;-76
2023/01/09 02:41:30;;;;;;;0.10;0.10;;;5.80;99.90;12.80;163505.00;;;;4974457;28;20737;-76
2023/01/09 02:44:20;;;;;;;0.10;0.10;;;5.80;99.90;12.80;163505.00;;;;4987706;28;20674;-75
2023/01/09 02:47:01;;;;;;;0.10;0.10;;;5.80;99.90;12.80;163505.00;;;;4996894;28;20231;-75
2023/01/09 02:49:30;;;;;;;0.10;0.10;;;5.90;99.90;12.80;163505.00;;;;4997309;28;20666;-75
2023/01/09 02:52:13;;;;;;;0.10;0.10;;;5.80;99.90;12.80;163505.00;;;;4990783;28;20212;-78
2023/01/09 02:54:54;;;;;;;0.10;0.10;;;5.80;99.90;12.80;163505.00;;;;4979790;28;20201;-76
2023/01/09 02:57:43;;;;;;;0.10;0.10;;;5.80;99.90;12.80;163505.00;;;;4965934;28;20196;-78
2023/01/09 03:00:28;;;;;;;0.10;0.10;;;5.80;99.90;12.80;163505.00;;;;4981025;28;20283;-75
2023/01/09 03:03:09;;;;;;;0.10;0.10;;;5.80;99.90;12.80;163505.00;;;;4968366;28;20200;-75
2023/01/09 03:05:45;;;;;;;0.10;0.10;;;5.80;99.90;12.80;163505.00;;;;4985013;28;20205;-75
2023/01/09 03:08:18;;;;;;;0.00;0.00;;;5.80;99.90;12.80;163505.00;;;;4979286;28;20257;-75
2023/01/09 03:10:55;;;;;;;0.10;0.10;;;5.80;99.90;12.80;163505.00;;;;4985667;28;20302;-76
2023/01/09 03:13:27;;;;;;;0.08;0.08;;;5.70;99.90;12.80;163505.00;;;;4972457;28;20204;-76
2023/01/09 03:15:57;;;;;;;0.10;0.10;;;5.80;99.90;12.80;163505.00;;;;4978615;28;20210;-76
2023/01/09 03:18:31;;;;;;;0.10;0.10;;;5.80;99.90;12.80;163505.00;;;;4975486;28;20225;-75
2023/01/09 03:20:59;;;;;;;0.10;0.10;;;5.80;99.90;12.80;163505.00;;;;4981523;28;20667;-75
2023/01/09 03:23:27;;;;;;;0.10;0.10;;;5.80;99.90;12.80;163505.00;;;;4980799;28;20193;-75
2023/01/09 03:25:56;;;;;;;0.10;0.10;;;5.80;99.90;12.80;163505.00;;;;4991761;28;20233;-77
2023/01/09 03:28:28;;;;;;;0.10;0.10;;;5.80;99.90;12.80;163505.00;;;;4993335;28;20220;-75
2023/01/09 03:30:56;;;;;;;0.10;0.10;;;5.80;99.90;12.80;163505.00;;;;4977932;28;20271;-78
2023/01/09 03:33:25;;;;;;;0.10;0.10;;;5.80;99.90;12.80;163505.00;;;;4991941;28;20279;-75
2023/01/09 03:35:53;;;;;;;0.10;0.10;;;5.80;99.90;12.80;163505.00;;;;4977967;28;20208;-76
2023/01/09 03:38:21;;;;;;;0.10;0.10;;;5.80;99.90;12.80;163505.00;;;;4975692;28;20209;-76
2023/01/09 03:40:50;;;;;;;0.10;0.10;;;5.80;99.90;12.80;163505.00;;;;4978656;28;20217;-76
2023/01/09 03:43:18;;;;;;;0.10;0.10;;;5.80;99.90;12.80;163505.00;;;;4983290;28;20205;-76
2023/01/09 03:45:46;;;;;;;0.10;0.10;;;5.80;99.90;12.80;163505.00;;;;4974107;28;20682;-75
2023/01/09 03:48:14;;;;;;;0.10;0.10;;;5.90;99.90;12.80;163505.00;;;;4974844;28;20761;-75
2023/01/09 03:50:44;;;;;;;0.10;0.10;;;5.90;99.90;12.80;163505.00;;;;4982463;28;20278;-76
2023/01/09 03:53:13;;;;;;;0.10;0.10;;;5.90;99.90;12.80;163505.00;;;;4980000;28;20598;-75
2023/01/09 03:55:45;;;;;;;0.10;0.10;;;5.90;99.90;12.80;163505.00;;;;4974539;28;20252;-75
2023/01/09 03:58:14;;;;;;;0.10;0.10;;;5.90;99.90;12.80;163505.00;;;;4974209;28;20228;-76
2023/01/09 04:00:44;;;;;;;0.10;0.10;;;5.90;99.90;12.80;163505.00;;;;4973569;28;20232;-75
2023/01/09 04:03:13;;;;;;;0.10;0.10;;;6.00;99.90;12.80;163505.00;;;;4975411;28;20221;-75
2023/01/09 04:05:46;;;;;;;0.10;0.10;;;6.00;99.90;12.80;163505.00;;;;4983551;28;20239;-75
2023/01/09 04:08:14;;;;;;;0.10;0.10;;;6.10;99.90;12.80;163505.00;;;;4973921;28;20227;-76
2023/01/09 04:10:44;;;;;;;0.10;0.10;;;6.10;99.90;12.80;163505.00;;;;4980052;28;20224;-76
2023/01/09 04:13:12;;;;;;;0.10;0.10;;;6.10;99.90;12.80;163505.00;;;;4986266;28;20260;-77
2023/01/09 04:15:40;;;;;;;0.10;0.10;;;6.10;99.90;12.80;163505.00;;;;4980111;28;20208;-77
2023/01/09 04:18:09;;;;;;;0.10;0.10;;;6.10;99.90;12.80;163505.00;;;;4992753;28;20212;-77
2023/01/09 04:20:36;;;;;;;0.10;0.10;;;6.10;99.90;12.80;163505.00;;;;4985259;28;20234;-77
2023/01/09 04:23:06;;;;;;;0.10;0.10;;;6.10;99.90;12.80;163505.00;;;;4985242;28;20200;-76
2023/01/09 04:25:34;;;;;;;0.10;0.10;;;6.10;99.90;12.80;163505.00;;;;4982764;28;20204;-76
2023/01/09 04:28:03;;;;;;;0.10;0.10;;;6.10;99.90;12.80;163505.00;;;;4982702;28;20204;-77
2023/01/09 04:30:31;;;;;;;0.10;0.10;;;6.10;99.90;12.80;163505.00;;;;4977568;28;20225;-77
2023/01/09 04:32:58;;;;;;;0.10;0.10;;;6.10;99.90;12.80;163505.00;;;;4973701;28;20614;-76
2023/01/09 04:35:26;;;;;;;0.10;0.10;;;6.10;99.90;12.80;163505.00;;;;4978339;28;20681;-76
2023/01/09 04:37:54;;;;;;;0.10;0.10;;;6.10;99.90;12.80;163505.00;;;;4987065;28;20192;-77
2023/01/09 04:40:24;;;;;;;0.10;0.10;;;6.10;99.90;12.80;163505.00;;;;4977958;28;20279;-76
2023/01/09 04:42:52;;;;;;;0.10;0.10;;;6.10;99.90;12.80;163505.00;;;;4981281;28;20201;-77
2023/01/09 04:45:20;;;;;;;0.10;0.10;;;6.10;99.90;12.80;163505.00;;;;4979653;28;20231;-77
2023/01/09 04:47:48;;;;;;;0.10;0.10;;;6.10;99.90;12.80;163505.00;;;;4971800;28;20209;-76
2023/01/09 04:50:16;;;;;;;0.10;0.10;;;6.10;99.90;12.80;163505.00;;;;4978364;28;20636;-76
2023/01/09 04:52:44;;;;;;;0.10;0.10;;;6.10;99.90;12.80;163505.00;;;;4980256;28;20204;-76
2023/01/09 04:55:12;;;;;;;0.10;0.10;;;6.10;99.90;12.80;163505.00;;;;4973356;28;20204;-75
2023/01/09 04:57:41;;;;;;;0.10;0.10;;;6.20;99.90;12.80;163505.00;;;;4977711;28;20570;-75
2023/01/09 05:00:12;;;;;;;0.10;0.10;;;6.20;99.90;12.80;163505.00;;;;4972614;28;20240;-75
2023/01/09 05:02:40;;;;;;;0.10;0.10;;;6.30;99.90;12.80;163505.00;;;;4973157;28;20209;-74
2023/01/09 05:05:10;;;;;;;0.10;0.10;;;6.30;99.90;12.80;163505.00;;;;4974512;28;20200;-74
2023/01/09 05:07:39;;;;;;;0.10;0.10;;;6.30;99.90;12.80;163505.00;;;;4975124;28;20256;-74
2023/01/09 05:10:09;;;;;;;0.10;0.10;;;6.30;99.90;12.80;163505.00;;;;4973972;28;20235;-74
2023/01/09 05:12:38;;;;;;;0.00;0.00;;;6.30;99.90;12.80;163505.00;;;;4973063;28;20201;-74
2023/01/09 05:15:09;;;;;;;0.10;0.10;;;6.30;99.90;12.80;163505.00;;;;4972824;28;20224;-76
2023/01/09 05:17:37;;;;;;;0.10;0.10;;;6.30;99.90;12.80;163505.00;;;;4984328;28;20199;-75
2023/01/09 05:20:06;;;;;;;0.10;0.10;;;6.30;99.90;12.80;163505.00;;;;4972611;28;20225;-76
2023/01/09 05:22:35;;;;;;;0.10;0.10;;;6.30;99.90;12.80;163505.00;;;;4974504;28;20260;-76
2023/01/09 05:25:04;;;;;;;0.10;0.10;;;6.30;99.90;12.80;163505.00;;;;4974162;28;20244;-77
2023/01/09 05:27:32;;;;;;;0.10;0.10;;;6.30;99.90;12.80;163505.00;;;;4979871;28;20417;-76
2023/01/09 05:30:01;;;;;;;0.10;0.10;;;6.30;99.90;12.80;163505.00;;;;4986735;28;20220;-75
2023/01/09 05:32:34;;;;;;;0.10;0.10;;;6.30;99.90;12.80;163505.00;;;;4984488;28;20205;-75
2023/01/09 05:35:02;;;;;;;0.10;0.10;;;6.30;99.90;12.80;163505.00;;;;4979676;28;20207;-75
2023/01/09 05:37:30;;;;;;;0.10;0.10;;;6.30;99.90;12.80;163505.00;;;;4983470;28;20205;-75
2023/01/09 05:40:00;;;;;;;0.10;0.10;;;6.30;99.90;12.80;163505.00;;;;4974175;28;20217;-76
2023/01/09 05:42:28;;;;;;;0.10;0.10;;;6.30;99.90;12.80;163505.00;;;;4981281;28;20854;-75
2023/01/09 05:44:56;;;;;;;0.08;0.08;;;6.30;99.90;12.80;163505.00;;;;4979078;28;20202;-77
2023/01/09 05:47:24;;;;;;;0.10;0.10;;;6.30;99.90;12.80;163505.00;;;;4975139;28;20197;-76
2023/01/09 05:49:55;;;;;;;0.00;0.00;;;6.30;99.90;12.80;163505.00;;;;4977795;28;20228;-73
2023/01/09 05:52:23;;;;;;;0.10;0.10;;;6.30;99.90;12.80;163505.00;;;;4975441;28;20275;-75
2023/01/09 05:54:51;;;;;;;0.00;0.00;;;6.30;99.90;12.80;163505.00;;;;4970053;28;20201;-75
2023/01/09 05:57:19;;;;;;;0.10;0.10;;;6.30;99.90;12.80;163505.00;;;;4989279;28;20206;-74
2023/01/09 05:59:47;;;;;;;0.10;0.10;;;6.30;99.90;12.80;163505.00;;;;4984825;28;20212;-73
2023/01/09 06:02:15;;;;;;;0.10;0.10;;;6.30;99.90;12.80;163505.00;;;;4976458;28;20294;-74
2023/01/09 06:04:43;;;;;;;0.05;0.05;;;6.30;99.90;12.80;163505.00;;;;4987484;28;20231;-74
2023/01/09 06:07:13;;;;;;;0.10;0.10;;;6.30;99.90;12.80;163505.00;;;;4997096;28;20196;-75
2023/01/09 06:09:47;;;;;;;0.10;0.10;;;6.40;99.90;12.80;163505.00;;;;4997486;28;20587;-74
2023/01/09 06:12:15;;;;;;;0.10;0.10;;;6.40;99.90;12.80;163505.00;;;;4996305;28;20224;-75
2023/01/09 06:14:43;;;;;;;0.10;0.10;;;6.50;99.90;12.80;163505.00;;;;4977103;28;20201;-74
2023/01/09 06:17:11;;;;;;;0.10;0.10;;;6.50;99.90;12.80;163505.00;;;;4959143;28;20210;-78
2023/01/09 06:19:39;;;;;;;0.10;0.10;;;6.50;99.90;12.80;163505.00;;;;4969969;28;20221;-75
2023/01/09 06:22:07;;;;;;;0.10;0.10;;;6.50;99.90;12.80;163505.00;;;;4978005;28;20662;-75
2023/01/09 06:24:36;;;;;;;0.10;0.10;;;6.60;99.90;12.80;163505.00;;;;4976324;28;20193;-75
2023/01/09 06:27:05;;;;;;;0.10;0.10;;;6.60;99.90;12.80;163505.00;;;;4977168;28;20661;-75
2023/01/09 06:29:33;;;;;;;0.00;0.00;;;6.70;99.90;12.80;163505.00;;;;4977209;28;20578;-73
2023/01/09 06:32:01;;;;;;;0.10;0.10;;;6.80;99.90;12.80;163505.00;;;;4976250;28;20225;-74
2023/01/09 06:34:29;;;;;;;0.10;0.10;;;6.80;99.90;12.80;163505.00;;;;4977405;28;20201;-73
2023/01/09 06:36:57;;;;;;;0.10;0.10;;;6.90;99.90;12.80;163505.00;;;;4976062;28;20198;-75
2023/01/09 06:39:25;;;;;;;0.10;0.10;;;6.90;99.90;12.80;163505.00;;;;4977271;28;20225;-74
2023/01/09 06:41:54;;;;;;;0.10;0.10;;;6.90;99.90;12.80;163505.00;;;;4976195;28;20193;-75
2023/01/09 06:44:22;;;;;;;0.10;0.10;;;6.90;99.90;12.80;163505.00;;;;4975867;28;20205;-76
2023/01/09 06:46:50;;;;;;;0.10;0.10;;;6.90;99.90;12.80;163505.00;;;;4975795;28;20233;-77
2023/01/09 06:49:22;;;;;;;0.10;0.10;;;7.00;99.90;12.80;163505.00;;;;4976572;28;20228;-74
2023/01/09 06:51:50;;;;;;;0.10;0.10;;;7.00;99.90;12.80;163505.00;;;;4977354;28;20313;-75
2023/01/09 06:54:19;;;;;;;0.10;0.10;;;7.00;99.90;12.80;163505.00;;;;4976661;28;20264;-74
2023/01/09 06:56:48;;;;;;;0.10;0.10;;;7.00;99.90;12.80;163505.00;;;;4958633;28;20252;-75
2023/01/09 06:59:17;;;;;;;0.10;0.10;;;7.00;99.90;12.80;163505.00;;;;4977003;28;20316;-74
2023/01/09 07:01:45;;;;;;;0.10;0.10;;;7.00;99.90;12.80;163505.00;;;;4958907;28;20209;-75
2023/01/09 07:04:13;;;;;;;0.10;0.10;;;7.00;99.90;12.80;163505.00;;;;4977109;28;20623;-75
2023/01/09 07:06:41;;;;;;;0.10;0.10;;;7.00;99.90;12.80;163505.00;;;;4976922;28;20194;-75
2023/01/09 07:09:12;;;;;;;0.10;0.10;;;7.00;99.90;12.80;163505.00;;;;4974980;28;20217;-75
2023/01/09 07:11:40;;;;;;;0.10;0.10;;;7.00;99.90;12.80;163505.00;;;;4959821;28;20221;-74
2023/01/09 07:14:08;;;;;;;0.10;0.10;;;7.10;99.90;12.80;163505.00;;;;4976205;28;20201;-74
2023/01/09 07:16:37;;;;;;;0.10;0.10;;;7.00;99.90;12.80;163505.00;;;;4976027;28;20197;-74
2023/01/09 07:19:05;;;;;;;0.10;0.10;;;7.10;99.90;12.80;163505.00;;;;4975178;28;20220;-74
2023/01/09 07:21:33;;;;;;;0.10;0.10;;;7.10;99.90;12.80;163505.00;;;;4975755;28;20197;-74
2023/01/09 07:24:01;;;;;;;0.10;0.10;;;7.20;99.90;12.80;163505.00;;;;4975127;28;20193;-74
2023/01/09 07:26:29;;;;;;;0.05;0.05;;;7.10;99.90;12.80;163505.00;;;;4977356;28;20193;-74
2023/01/09 07:28:57;;;;;;;0.10;0.10;;;7.20;99.90;12.80;163505.00;;;;4975732;28;20213;-74
2023/01/09 07:31:25;;;;;;;0.10;0.10;;;7.20;99.90;12.80;163505.00;;;;4977406;28;20272;-74
2023/01/09 07:33:54;;;;;;;0.10;0.10;;;7.20;99.90;12.80;163505.00;;;;4960582;28;20211;-74
2023/01/09 07:36:22;;;;;;;0.10;0.10;;;7.20;99.90;12.80;163505.00;;;;4977699;28;20189;-74
2023/01/09 07:38:50;;;;;;;0.10;0.10;;;7.20;99.90;12.80;163505.00;;;;4977922;28;20244;-74
2023/01/09 07:41:18;;;;;;;0.10;0.10;;;7.20;99.90;12.80;163505.00;;;;4977257;28;20204;-73
2023/01/09 07:43:46;;;;;;;0.10;0.10;;;7.20;99.90;12.80;163505.00;;;;4980030;28;20683;-74
2023/01/09 07:46:14;;;;;;;0.10;0.10;;;7.20;99.90;12.80;163505.00;;;;4980531;28;20197;-76
2023/01/09 07:48:42;;;;;;;0.10;0.10;;;7.30;99.90;12.80;163505.00;;;;4977133;28;20225;-76
2023/01/09 07:51:12;;;;;;;0.10;0.10;;;7.30;99.90;12.80;163505.00;;;;4976499;28;20205;-75
2023/01/09 07:53:40;;;;;;;0.10;0.10;;;7.40;99.90;12.80;163505.00;;;;4976775;28;20201;-75
2023/01/09 07:56:08;;;;;;;0.10;0.10;;;7.40;99.90;12.80;163505.00;;;;4975256;28;20663;-73
2023/01/09 07:58:37;;;;;;;0.10;0.10;;;7.50;99.90;12.80;163505.00;;;;4975066;28;20245;-74
2023/01/09 08:01:05;;;;;;;0.10;0.10;;;7.50;99.90;12.80;163505.00;;;;4974449;28;20189;-74
2023/01/09 08:03:33;;;;;;;0.10;0.10;;;7.50;99.90;12.80;163505.00;;;;4974816;28;20252;-74
2023/01/09 08:06:01;;;;;;;0.10;0.10;;;7.60;99.90;12.80;163505.00;;;;4974801;28;20197;-74
2023/01/09 08:08:31;;;;;;;0.10;0.10;;;7.60;99.90;12.80;163505.00;;;;4975110;28;20341;-74
2023/01/09 08:10:58;;;;;;;0.10;0.10;;;7.60;99.90;12.80;163505.00;;;;4976460;28;20201;-74
2023/01/09 08:13:27;;;;;;;0.10;0.10;;;7.60;99.90;12.80;163505.00;;;;4977409;28;20700;-73
2023/01/09 08:15:54;;;;;;;0.10;0.10;;;7.60;99.90;12.80;163505.00;;;;4975673;28;20208;-74
2023/01/09 08:18:22;;;;;;;0.10;0.10;;;7.70;99.90;12.80;163505.00;;;;4974950;28;20221;-74
2023/01/09 08:20:51;;;;;;;0.10;0.10;;;7.70;99.90;12.80;163505.00;;;;4974452;28;20197;-74
2023/01/09 08:23:27;;;;;;;0.10;0.10;;;7.70;99.90;12.80;163505.00;;;;4992086;28;20204;-75
2023/01/09 08:25:56;;;;;;;0.10;0.10;;;7.70;99.90;12.80;163505.00;;;;4990303;28;20217;-74
2023/01/09 08:28:24;;;;;;;0.10;0.10;;;7.70;99.90;12.80;163505.00;;;;4973961;28;20221;-74
2023/01/09 08:30:52;;;;;;;0.10;0.10;;;7.70;99.90;12.80;163505.00;;;;4974895;28;20189;-74
2023/01/09 08:33:20;;;;;;;0.10;0.10;;;7.70;99.90;12.80;163505.00;;;;4975010;28;20240;-74
2023/01/09 08:35:48;;;;;;;0.10;0.10;;;7.70;99.90;12.80;163505.00;;;;4974452;28;20189;-75
2023/01/09 08:38:16;;;;;;;0.10;0.10;;;7.70;99.90;12.80;163505.00;;;;4975889;28;20213;-74
2023/01/09 08:40:47;;;;;;;0.10;0.10;;;7.70;99.90;12.80;163505.00;;;;4976464;28;20197;-74
2023/01/09 08:48:44;;;;;;;0.10;0.10;;;7.70;99.90;12.80;163505.00;;;;4973135;28;20225;-74
2023/01/09 08:51:12;;;;;;;0.10;0.10;;;7.70;99.90;12.80;163505.00;;;;4975004;28;20201;-76
2023/01/09 08:53:40;;;;;;;0.10;0.10;;;7.70;99.90;12.80;163505.00;;;;4974848;28;20228;-75
2023/01/09 08:56:09;;;;;;;0.08;0.08;;;7.70;99.90;12.80;163505.00;;;;4974955;28;20193;-74
2023/01/09 08:58:38;;;;;;;0.10;0.10;;;7.70;99.90;12.80;163505.00;;;;4973951;28;20214;-75
2023/01/09 09:01:07;;;;;;;0.10;0.10;;;7.70;99.90;12.80;163505.00;;;;4973950;28;20197;-74
2023/01/09 09:03:35;;;;;;;0.10;0.10;;;7.70;99.90;12.80;163505.00;;;;4974565;28;20688;-75
2023/01/09 09:06:05;;;;;;;0.10;0.10;;;7.70;99.90;12.80;163505.00;;;;4974677;28;20202;-74
2023/01/09 09:08:34;;;;;;;0.10;0.10;;;7.80;99.90;12.80;163505.00;;;;4974143;28;20220;-75
2023/01/09 09:11:02;;;;;;;0.10;0.10;;;7.80;99.90;12.80;163505.00;;;;4974203;28;20353;-74
2023/01/09 09:13:30;;;;;;;0.10;0.10;;;7.80;99.90;12.80;163505.00;;;;4973689;28;20220;-74
2023/01/09 09:16:00;;;;;;;0.10;0.10;;;7.80;99.90;12.80;163505.00;;;;4973488;28;20189;-77
2023/01/09 09:18:28;;;;;;;0.10;0.10;;;7.80;99.90;12.80;163505.00;;;;4973264;28;20209;-74
2023/01/09 09:20:55;;;;;;;0.00;0.00;;;7.90;99.90;12.80;163505.00;;;;4974511;28;20193;-74
2023/01/09 09:23:23;;;;;;;0.10;0.10;;;7.90;99.90;12.80;163505.00;;;;4973790;28;20201;-75
2023/01/09 09:25:51;;;;;;;0.10;0.10;;;7.90;99.90;12.80;163505.00;;;;4973946;28;20181;-75
2023/01/09 09:28:19;;;;;;;0.00;0.00;;;7.90;99.90;12.80;163505.00;;;;4973441;28;20280;-75
2023/01/09 09:30:47;;;;;;;0.10;0.10;;;7.90;99.90;12.80;163505.00;;;;4973640;28;20667;-76
2023/01/09 09:33:16;;;;;;;0.10;0.10;;;7.90;99.90;12.80;163505.00;;;;4972890;28;20221;-74
2023/01/09 09:35:45;;;;;;;0.10;0.10;;;8.00;99.90;12.80;163505.00;;;;4973464;28;20208;-74
2023/01/09 09:38:13;;;;;;;0.10;0.10;;;8.00;99.90;12.80;163505.00;;;;4972318;28;20235;-74
2023/01/09 09:41:05;;;;;;;0.10;0.10;;;8.00;99.90;12.80;163505.00;;;;4973276;28;20231;-75
2023/01/09 09:46:51;;;;;;;0.00;0.00;;;8.10;99.90;12.80;163505.00;;;;4973610;28;20192;-76
2023/01/09 09:49:28;;;;;;;0.10;0.10;;;8.10;99.90;12.80;163505.00;;;;4974307;28;20231;-74
2023/01/09 09:52:08;;;;;;;0.10;0.10;;;8.10;99.90;12.80;163505.00;;;;4974718;28;20203;-74
2023/01/09 09:54:42;;;;;;;0.10;0.10;;;8.10;99.90;12.80;163505.00;;;;4973090;28;20262;-75
2023/01/09 09:57:17;;;;;;;0.10;0.10;;;8.10;99.90;12.80;163505.00;;;;4973066;28;20672;-75
2023/01/09 09:59:50;;;;;;;0.10;0.10;;;8.00;99.90;12.80;163505.00;;;;4973167;28;20212;-74
2023/01/09 10:02:28;;;;;;;0.10;0.10;;;8.10;99.90;12.80;163505.00;;;;4973237;28;20201;-74
2023/01/09 10:05:12;;;;;;;0.10;0.10;;;8.00;99.90;12.80;163505.00;;;;4974298;28;20193;-76
2023/01/09 10:07:47;;;;;;;0.10;0.10;;;8.00;99.90;12.80;163505.00;;;;4973227;28;20255;-74
2023/01/09 10:10:27;;;;;;;0.10;0.10;;;8.00;99.90;12.80;163505.00;;;;4974318;28;20197;-74
2023/01/09 10:12:58;;;;;;;0.10;0.10;;;8.00;99.90;12.80;163505.00;;;;4975185;28;20220;-74
2023/01/09 10:15:40;;;;;;;0.10;0.10;;;7.90;99.90;12.80;163505.00;;;;4975041;28;20197;-73
2023/01/09 10:18:24;;;;;;;0.10;0.10;;;7.70;99.90;12.80;163505.00;;;;4972666;28;20213;-74
2023/01/09 10:20:59;;;;;;;0.10;0.10;;;7.70;99.90;12.80;163505.00;;;;4973105;28;20217;-73
2023/01/09 10:23:59;;;;;;;0.10;0.10;;;7.70;99.90;12.80;163505.00;;;;4973292;28;20200;-75
2023/01/09 10:26:39;;;;;;;0.10;0.10;;;7.80;99.90;12.80;163505.00;;;;4973324;28;20205;-74
2023/01/09 10:29:46;;;;;;;0.10;0.10;;;7.90;99.90;12.80;163505.00;;;;4972787;28;20217;-76
2023/01/09 10:32:37;;;;;;;0.10;0.10;;;8.00;99.90;12.80;163505.00;;;;4972538;28;20212;-74
2023/01/09 10:35:33;;;;;;;0.05;0.05;;;8.00;99.90;12.80;163505.00;;;;4972575;28;20208;-73
2023/01/09 10:38:25;;;;;;;0.10;0.10;;;8.00;99.90;12.80;163505.00;;;;4972665;28;20636;-74
2023/01/09 10:41:02;;;;;;;0.10;0.10;;;8.00;99.90;12.80;163505.00;;;;4973719;28;20193;-74
2023/01/09 10:43:38;;;;;;;0.10;0.10;;;8.00;99.90;12.80;163505.00;;;;4974583;28;20674;-74
2023/01/09 10:46:11;;;;;;;0.10;0.10;;;8.00;99.90;12.80;163505.00;;;;4977822;28;20192;-73
2023/01/09 10:48:47;;;;;;;0.00;0.00;;;8.00;99.90;12.80;163505.00;;;;5000501;23;20255;-72
2023/01/09 10:51:20;;;;;;;0.10;0.10;;;7.90;99.90;12.80;163505.00;;;;4975055;28;20196;-72
2023/01/09 10:53:53;;;;;;;0.10;0.10;;;7.90;99.90;12.80;163505.00;;;;4975392;28;20225;-72
2023/01/09 10:56:26;;;;;;;0.00;0.00;;;7.90;99.90;12.80;163505.00;;;;4975373;28;20317;-72
2023/01/09 10:58:56;;;;;;;0.10;0.10;;;7.90;99.90;12.80;163505.00;;;;4980863;28;20208;-72
2023/01/09 11:01:27;;;;;;;0.10;0.10;;;7.80;99.90;12.80;163505.00;;;;4997528;28;20188;-72
2023/01/09 11:03:57;;;;;;;0.10;0.10;;;7.80;99.90;12.80;163505.00;;;;4994621;28;20189;-72
2023/01/09 11:06:35;;;;;;;0.00;0.00;;;7.90;99.90;12.80;163505.00;;;;4995261;28;20200;-73
2023/01/09 11:09:06;;;;;;;0.10;0.10;;;8.00;99.90;12.80;163505.00;;;;5013444;28;20696;-73
2023/01/09 11:11:37;;;;;;;0.10;0.10;;;8.00;99.90;12.80;163505.00;;;;5014028;28;20618;-74
2023/01/09 11:14:14;;;;;;;0.10;0.10;;;8.10;99.90;12.80;163505.00;;;;5013770;28;20235;-73
2023/01/09 11:16:52;;;;;;;0.10;0.10;;;8.20;99.90;12.80;163505.00;;;;5014597;28;20192;-73
2023/01/09 11:19:21;;;;;;;0.05;0.05;;;8.20;99.90;12.80;163505.00;;;;4995827;28;20223;-73
2023/01/09 11:21:50;;;;;;;0.10;0.10;;;8.10;99.90;12.80;163505.00;;;;5014166;28;20250;-73
2023/01/09 11:24:30;;;;;;;0.10;0.10;;;8.10;99.90;12.80;163505.00;;;;5013964;28;20628;-75
2023/01/09 11:27:23;;;;;;;0.10;0.10;;;7.90;99.90;12.80;163505.00;;;;5013863;28;20199;-73
2023/01/09 11:30:25;;;;;;;0.05;0.05;;;7.80;99.90;12.80;163505.00;;;;5013624;28;20208;-72